メキシコシティ の空港の天気 - METARとTAF

メキシコ・シティ国際空港 ( MMMX / MEX ) - メキシコ メキシコシティ
飛行場実況気象(Metar)
観測時間07/22 12:45 CDT (07/22 17:45 UTC)
風向・風速西 2m/s
視程9650m
天気現象
全天の4割程度の雲 雲底高度 610m
全天の8割程度の雲 雲底高度 2440m
全天の8割程度の雲 雲底高度 6100m
気温22℃
湿度41%
気圧1009.9hPa
METARMMMX 221745Z 27003KT 6SM SCT020 BKN080 BKN200 22/08 A3038 NOSIG RMK SLP099 57011 954 8/132 HZY
過去の天気等 Google飛行場航空写真 Wunderground天気予報

過去48時間のMETAR

飛行場予報(TAF)
発表時間: 7/22 11:18 CDT (7/22 16:18 UTC)
予報対象時間: 22日13時 CDT ~ 23日19時 CDT
風向・風速北東 5m/s
視程10km以上
天気現象煙霧
全天の4割程度の雲 雲底高度 610m
全天の4割程度の雲 雲底高度 2440m
全天の8割程度の雲 雲底高度 6100m
22日16時 CDT ~ 22日18時 CDT に徐々に
視程8050m
天気現象弱い雨
全天の8割程度の雲 雲底高度 610m
全天を覆う雲 雲底高度 2440m
22日18時 CDT から 確率 40% で
視程6440m
天気現象雷雨
全天の8割程度の積乱雲 雲底高度 610m
23日5時 CDT から
風向・風速東 2m/s
視程10km以上
全天の4割程度の雲 雲底高度 610m
全天の4割程度の雲 雲底高度 2740m
全天の8割程度の雲 雲底高度 6710m
23日14時 CDT ~ 23日16時 CDT に徐々に
風向・風速北北東 6m/s
全天の8割程度の雲 雲底高度 2740m
TAF MMMX 221618Z 2218/2324 04010KT 6SM HZ SCT020 SCT080 BKN200 TX26/2221Z TN14/2312Z
BECMG 2221/2223 5SM -RA BKN020 OVC080
PROB40 2223/2303 4SM TSRA BKN020CB
FM231000 08004KT P6SM SCT020 SCT090 BKN220
BECMG 2319/2321 03012KT BKN090